Time;durP1;ratioP1;P1;durP2;ratioP2;P2;SDS_P1;SDS_P2;PMS_P1;PMS_P2;Temp;Humidity;BMP_temperature;BMP_pressure;BME280_temperature;BME280_humidity;BME280_pressure;Samples;Min_cycle;Max_cycle;Signal;HPM_P1;HPM_P2
2023/12/08 00:01:54;;;;;;;28.08;19.15;;;;;;;;;;5008704;28;20077;-74
2023/12/08 00:04:20;;;;;;;26.40;17.05;;;;;;;;;;5009970;28;20050;-74
2023/12/08 00:06:46;;;;;;;26.38;18.25;;;;;;;;;;5002812;28;20053;-74
2023/12/08 00:09:12;;;;;;;30.83;18.55;;;;;;;;;;5015185;28;20566;-74
2023/12/08 00:11:38;;;;;;;25.27;18.48;;;;;;;;;;5013260;28;20491;-75
2023/12/08 00:14:04;;;;;;;26.70;17.98;;;;;;;;;;5011878;28;20516;-74
2023/12/08 00:16:30;;;;;;;28.50;19.10;;;;;;;;;;5013100;28;20119;-74
2023/12/08 00:18:57;;;;;;;27.65;19.33;;;;;;;;;;5011888;28;20564;-74
2023/12/08 00:21:25;;;;;;;28.20;18.70;;;;;;;;;;5013143;28;20046;-74
2023/12/08 00:23:51;;;;;;;26.98;18.98;;;;;;;;;;5012384;28;20411;-74
2023/12/08 00:26:17;;;;;;;31.45;19.27;;;;;;;;;;5010581;28;20522;-74
2023/12/08 00:28:44;;;;;;;31.27;19.25;;;;;;;;;;5007261;28;20073;-74
2023/12/08 00:31:10;;;;;;;25.85;17.73;;;;;;;;;;4999944;28;20130;-74
2023/12/08 00:33:37;;;;;;;29.60;19.27;;;;;;;;;;5001878;28;20038;-74
2023/12/08 00:36:10;;;;;;;25.55;18.33;;;;;;;;;;4997930;28;20420;-74
2023/12/08 00:38:36;;;;;;;29.65;18.08;;;;;;;;;;5012274;28;20140;-74
2023/12/08 00:41:03;;;;;;;27.30;18.55;;;;;;;;;;4999235;28;20046;-74
2023/12/08 00:43:29;;;;;;;28.52;18.42;;;;;;;;;;5008961;28;20499;-74
2023/12/08 00:45:55;;;;;;;25.88;16.05;;;;;;;;;;5006478;28;20492;-74
2023/12/08 00:48:21;;;;;;;28.83;18.08;;;;;;;;;;5007172;28;20496;-74
2023/12/08 00:50:47;;;;;;;27.60;18.63;;;;;;;;;;5009150;28;20501;-74
2023/12/08 00:53:13;;;;;;;28.83;18.73;;;;;;;;;;4996929;28;20383;-74
2023/12/08 00:55:39;;;;;;;27.73;19.20;;;;;;;;;;5009190;28;20407;-74
2023/12/08 00:58:06;;;;;;;28.83;19.20;;;;;;;;;;5011499;28;20408;-74
2023/12/08 01:00:32;;;;;;;31.73;19.67;;;;;;;;;;5011612;28;20072;-74
2023/12/08 01:02:58;;;;;;;27.77;18.05;;;;;;;;;;5011640;28;20052;-74
2023/12/08 01:05:24;;;;;;;29.17;18.23;;;;;;;;;;5012586;28;20053;-74
2023/12/08 01:07:50;;;;;;;27.58;19.02;;;;;;;;;;5012777;28;20411;-74
2023/12/08 01:10:16;;;;;;;30.20;19.65;;;;;;;;;;5012313;28;20038;-74
2023/12/08 01:12:43;;;;;;;30.05;19.15;;;;;;;;;;5012935;28;20050;-74
2023/12/08 01:15:09;;;;;;;27.45;18.20;;;;;;;;;;5016473;28;20452;-74
2023/12/08 01:17:36;;;;;;;27.73;19.08;;;;;;;;;;5015743;28;20061;-74
2023/12/08 01:20:02;;;;;;;30.33;19.60;;;;;;;;;;5015877;28;20415;-74
2023/12/08 01:22:28;;;;;;;29.70;18.40;;;;;;;;;;4998624;28;20104;-74
2023/12/08 01:24:54;;;;;;;25.60;18.80;;;;;;;;;;5014963;28;20132;-74
2023/12/08 01:27:20;;;;;;;27.77;17.38;;;;;;;;;;5002792;28;20140;-74
2023/12/08 01:29:46;;;;;;;26.85;18.33;;;;;;;;;;4999645;28;20487;-74
2023/12/08 01:32:12;;;;;;;27.08;18.60;;;;;;;;;;5015726;28;20514;-74
2023/12/08 01:34:38;;;;;;;26.00;18.20;;;;;;;;;;5015928;28;20050;-74
2023/12/08 01:37:04;;;;;;;28.88;18.92;;;;;;;;;;5015716;28;20050;-74
2023/12/08 01:39:30;;;;;;;28.33;18.55;;;;;;;;;;5005967;28;20136;-74
2023/12/08 01:41:56;;;;;;;27.98;17.80;;;;;;;;;;5013524;28;20495;-74
2023/12/08 01:44:22;;;;;;;25.08;18.00;;;;;;;;;;5013748;28;20128;-74
2023/12/08 01:46:49;;;;;;;30.30;18.85;;;;;;;;;;5014232;28;20508;-74
2023/12/08 01:49:15;;;;;;;26.55;17.05;;;;;;;;;;5008961;28;20522;-74
2023/12/08 01:51:43;;;;;;;29.00;18.67;;;;;;;;;;5012679;28;20042;-74
2023/12/08 01:54:09;;;;;;;29.08;20.05;;;;;;;;;;5014694;28;20078;-74
2023/12/08 01:56:35;;;;;;;28.63;20.23;;;;;;;;;;5013068;28;20045;-74
2023/12/08 01:59:02;;;;;;;27.75;20.05;;;;;;;;;;5011908;28;20045;-74
2023/12/08 02:01:28;;;;;;;28.33;19.50;;;;;;;;;;5010090;28;20045;-74
2023/12/08 02:03:55;;;;;;;28.58;19.58;;;;;;;;;;5014979;28;20046;-74
2023/12/08 02:06:21;;;;;;;29.48;20.30;;;;;;;;;;5014733;28;20048;-74
2023/12/08 02:08:47;;;;;;;28.98;19.50;;;;;;;;;;5013726;28;20099;-74
2023/12/08 02:11:13;;;;;;;29.85;19.80;;;;;;;;;;5014855;28;20144;-74
2023/12/08 02:13:40;;;;;;;27.63;19.98;;;;;;;;;;5015083;28;20046;-74
2023/12/08 02:16:20;;;;;;;27.65;17.95;;;;;;;;;;5014717;28;20169;-74
2023/12/08 02:18:46;;;;;;;29.40;19.80;;;;;;;;;;5014742;28;20054;-74
2023/12/08 02:21:13;;;;;;;30.67;19.13;;;;;;;;;;5010640;28;20034;-74
2023/12/08 02:23:42;;;;;;;31.33;20.23;;;;;;;;;;5002999;28;20069;-74
2023/12/08 02:26:10;;;;;;;27.88;19.27;;;;;;;;;;5010218;28;20108;-74
2023/12/08 02:28:36;;;;;;;28.52;18.75;;;;;;;;;;5002267;28;20050;-74
2023/12/08 02:31:03;;;;;;;27.45;19.15;;;;;;;;;;5011553;28;20046;-74
2023/12/08 02:33:33;;;;;;;29.15;20.40;;;;;;;;;;5004870;28;20050;-74
2023/12/08 02:36:04;;;;;;;27.30;18.77;;;;;;;;;;5013616;28;20446;-74
2023/12/08 02:38:32;;;;;;;29.55;19.05;;;;;;;;;;5013924;28;20415;-74
2023/12/08 02:40:58;;;;;;;28.23;18.65;;;;;;;;;;5014290;28;20053;-74
2023/12/08 02:43:24;;;;;;;28.08;19.40;;;;;;;;;;5014043;28;20391;-74
2023/12/08 02:45:50;;;;;;;28.05;19.23;;;;;;;;;;5014101;28;20046;-74
2023/12/08 02:48:17;;;;;;;31.05;20.38;;;;;;;;;;5009488;28;20045;-74
2023/12/08 02:50:43;;;;;;;27.45;18.90;;;;;;;;;;5006669;28;20038;-74
2023/12/08 02:53:09;;;;;;;26.67;18.70;;;;;;;;;;5008798;28;20050;-74
2023/12/08 02:55:35;;;;;;;29.85;18.88;;;;;;;;;;5000723;28;20046;-74
2023/12/08 02:58:01;;;;;;;28.35;18.70;;;;;;;;;;5011964;28;20054;-74
2023/12/08 03:00:27;;;;;;;29.80;19.48;;;;;;;;;;5005029;28;20508;-74
2023/12/08 03:02:53;;;;;;;28.38;19.00;;;;;;;;;;4995857;28;20160;-74
2023/12/08 03:05:20;;;;;;;27.08;19.13;;;;;;;;;;5013580;28;20047;-74
2023/12/08 03:07:46;;;;;;;28.77;19.67;;;;;;;;;;5002890;28;20058;-74
2023/12/08 03:10:13;;;;;;;28.13;20.05;;;;;;;;;;4977823;28;20050;-74
2023/12/08 03:12:39;;;;;;;24.95;17.50;;;;;;;;;;5013642;28;20053;-74
2023/12/08 03:15:05;;;;;;;27.60;18.98;;;;;;;;;;5002929;28;20080;-74
2023/12/08 03:17:32;;;;;;;27.52;18.50;;;;;;;;;;5013895;28;20380;-75
2023/12/08 03:19:58;;;;;;;28.83;18.98;;;;;;;;;;5011352;28;20062;-74
2023/12/08 03:22:24;;;;;;;28.33;18.52;;;;;;;;;;5013265;28;20046;-74
2023/12/08 03:24:50;;;;;;;26.50;18.42;;;;;;;;;;5002835;28;20065;-74
2023/12/08 03:27:16;;;;;;;25.88;18.98;;;;;;;;;;5010830;28;20041;-74
2023/12/08 03:29:42;;;;;;;27.35;18.20;;;;;;;;;;5013558;28;20077;-74
2023/12/08 03:32:08;;;;;;;27.60;18.80;;;;;;;;;;5013112;28;20042;-74
2023/12/08 03:34:35;;;;;;;28.70;19.55;;;;;;;;;;5010978;28;20459;-74
2023/12/08 03:37:01;;;;;;;25.90;18.08;;;;;;;;;;5011028;28;20050;-74
2023/12/08 03:39:27;;;;;;;27.25;18.17;;;;;;;;;;5013124;28;20041;-74
2023/12/08 03:41:53;;;;;;;26.90;17.27;;;;;;;;;;5013713;28;20050;-74
2023/12/08 03:44:19;;;;;;;28.02;17.58;;;;;;;;;;5012839;28;20057;-74
2023/12/08 03:46:45;;;;;;;24.80;17.85;;;;;;;;;;5013573;28;20076;-74
2023/12/08 03:49:11;;;;;;;24.77;17.45;;;;;;;;;;5012807;28;20042;-74
2023/12/08 03:51:37;;;;;;;26.02;18.27;;;;;;;;;;5012645;28;20042;-74
2023/12/08 03:54:03;;;;;;;27.40;18.25;;;;;;;;;;5006228;28;20050;-74
2023/12/08 03:56:29;;;;;;;29.67;18.73;;;;;;;;;;5004950;28;20053;-74
2023/12/08 03:58:55;;;;;;;27.95;18.63;;;;;;;;;;5009385;28;20400;-74
2023/12/08 04:01:21;;;;;;;25.90;17.70;;;;;;;;;;5003837;28;20077;-74
2023/12/08 04:03:48;;;;;;;28.38;19.00;;;;;;;;;;5008332;28;20045;-74
2023/12/08 04:06:14;;;;;;;27.70;19.15;;;;;;;;;;4996062;28;20057;-74
2023/12/08 04:08:40;;;;;;;32.65;19.48;;;;;;;;;;4999896;28;20042;-74
2023/12/08 04:11:06;;;;;;;27.70;18.83;;;;;;;;;;5011805;28;20511;-74
2023/12/08 04:13:32;;;;;;;29.27;19.65;;;;;;;;;;5010101;28;20049;-74
2023/12/08 04:15:58;;;;;;;29.42;19.48;;;;;;;;;;5011023;28;20466;-74
2023/12/08 04:18:24;;;;;;;28.38;19.13;;;;;;;;;;5011796;28;20058;-74
2023/12/08 04:20:50;;;;;;;28.83;19.73;;;;;;;;;;5011425;28;20046;-74
2023/12/08 04:23:17;;;;;;;31.63;21.00;;;;;;;;;;5005747;28;20054;-74
2023/12/08 04:25:43;;;;;;;30.13;19.85;;;;;;;;;;4993409;28;20045;-74
2023/12/08 04:28:09;;;;;;;29.17;19.08;;;;;;;;;;5002605;28;20042;-74
2023/12/08 04:30:35;;;;;;;29.70;19.13;;;;;;;;;;5003951;28;20042;-74
2023/12/08 04:33:01;;;;;;;31.92;20.27;;;;;;;;;;5008490;28;20050;-74
2023/12/08 04:35:27;;;;;;;30.85;19.58;;;;;;;;;;5007890;28;20503;-74
2023/12/08 04:37:53;;;;;;;32.88;19.73;;;;;;;;;;5010661;28;20385;-74
2023/12/08 04:40:19;;;;;;;27.88;18.80;;;;;;;;;;5012689;28;20045;-74
2023/12/08 04:42:45;;;;;;;30.75;20.42;;;;;;;;;;4995880;28;20042;-74
2023/12/08 04:45:13;;;;;;;29.73;19.73;;;;;;;;;;5010832;28;20384;-74
2023/12/08 04:47:39;;;;;;;31.95;19.60;;;;;;;;;;5012376;28;20041;-74
2023/12/08 04:50:06;;;;;;;33.28;20.17;;;;;;;;;;5012729;28;20432;-74
2023/12/08 04:52:32;;;;;;;32.90;20.33;;;;;;;;;;5013899;28;20066;-74
2023/12/08 04:54:58;;;;;;;32.72;21.27;;;;;;;;;;5011640;28;20515;-74
2023/12/08 04:57:24;;;;;;;32.83;19.75;;;;;;;;;;5015568;28;20491;-74
2023/12/08 04:59:50;;;;;;;32.78;20.85;;;;;;;;;;5014737;28;20046;-74
2023/12/08 05:02:17;;;;;;;32.00;19.65;;;;;;;;;;5004071;28;20049;-74
2023/12/08 05:04:43;;;;;;;32.30;20.58;;;;;;;;;;5015845;28;20053;-74
2023/12/08 05:07:09;;;;;;;33.55;19.95;;;;;;;;;;5010977;28;20046;-74
2023/12/08 05:09:35;;;;;;;30.83;19.75;;;;;;;;;;5011780;28;20054;-74
2023/12/08 05:12:01;;;;;;;31.95;19.48;;;;;;;;;;5014133;28;20429;-74
2023/12/08 05:14:27;;;;;;;32.80;21.65;;;;;;;;;;5011993;28;20093;-74
2023/12/08 05:16:53;;;;;;;35.15;20.67;;;;;;;;;;5014681;28;20057;-74
2023/12/08 05:19:19;;;;;;;32.80;21.10;;;;;;;;;;5012334;28;20054;-74
2023/12/08 05:21:45;;;;;;;34.72;21.88;;;;;;;;;;5013536;28;20058;-74
2023/12/08 05:24:11;;;;;;;31.48;20.45;;;;;;;;;;5014975;28;20121;-74
2023/12/08 05:26:37;;;;;;;33.83;20.52;;;;;;;;;;5008154;28;20451;-74
2023/12/08 05:29:03;;;;;;;35.00;20.20;;;;;;;;;;5013582;28;20052;-74
2023/12/08 05:31:29;;;;;;;33.53;20.50;;;;;;;;;;5008306;28;20038;-74
2023/12/08 05:33:55;;;;;;;31.30;19.95;;;;;;;;;;5006290;28;20042;-74
2023/12/08 05:36:21;;;;;;;35.35;21.90;;;;;;;;;;5014883;28;20077;-74
2023/12/08 05:38:47;;;;;;;34.42;20.98;;;;;;;;;;5015337;28;20064;-74
2023/12/08 05:41:14;;;;;;;32.60;19.77;;;;;;;;;;5013213;28;20045;-74
2023/12/08 05:43:40;;;;;;;35.90;20.83;;;;;;;;;;5015710;28;20396;-74
2023/12/08 05:46:07;;;;;;;36.72;21.23;;;;;;;;;;5014335;28;20050;-74
2023/12/08 05:48:33;;;;;;;36.80;21.75;;;;;;;;;;5003159;28;20054;-74
2023/12/08 05:50:59;;;;;;;33.20;20.52;;;;;;;;;;5014610;28;20127;-74
2023/12/08 05:53:25;;;;;;;32.92;21.23;;;;;;;;;;5012636;28;20050;-74
2023/12/08 05:55:51;;;;;;;33.50;20.58;;;;;;;;;;5013982;28;20380;-74
2023/12/08 05:58:17;;;;;;;33.42;19.63;;;;;;;;;;5008389;28;20389;-74
2023/12/08 06:00:43;;;;;;;37.17;21.45;;;;;;;;;;5004632;28;20084;-74
2023/12/08 06:03:09;;;;;;;35.15;21.52;;;;;;;;;;5010337;28;20042;-74
2023/12/08 06:05:35;;;;;;;31.40;20.15;;;;;;;;;;5010658;28;20100;-74
2023/12/08 06:08:01;;;;;;;37.78;22.67;;;;;;;;;;5008133;28;20045;-74
2023/12/08 06:10:27;;;;;;;35.45;22.02;;;;;;;;;;5011851;28;20034;-74
2023/12/08 06:12:53;;;;;;;33.13;20.83;;;;;;;;;;5011810;28;20042;-74
2023/12/08 06:15:19;;;;;;;33.75;20.80;;;;;;;;;;5011833;28;20045;-74
2023/12/08 06:17:45;;;;;;;33.72;20.48;;;;;;;;;;4995192;28;20105;-74
2023/12/08 06:20:12;;;;;;;37.78;22.40;;;;;;;;;;5010307;28;20137;-74
2023/12/08 06:22:38;;;;;;;37.28;21.60;;;;;;;;;;5004750;28;20099;-74
2023/12/08 06:25:05;;;;;;;35.38;21.48;;;;;;;;;;5003760;28;20512;-74
2023/12/08 06:27:31;;;;;;;37.95;22.63;;;;;;;;;;4995402;28;20049;-74
2023/12/08 06:29:57;;;;;;;40.47;21.75;;;;;;;;;;5001826;28;20042;-74
2023/12/08 06:32:25;;;;;;;39.50;21.83;;;;;;;;;;5008027;28;20100;-74
2023/12/08 06:34:51;;;;;;;38.58;21.50;;;;;;;;;;5009220;28;20377;-74
2023/12/08 06:37:17;;;;;;;38.28;22.27;;;;;;;;;;5003620;28;20050;-74
2023/12/08 06:39:43;;;;;;;35.03;20.13;;;;;;;;;;5010329;28;20046;-74
2023/12/08 06:42:10;;;;;;;36.22;23.08;;;;;;;;;;5012431;28;20045;-74
2023/12/08 06:44:36;;;;;;;42.20;23.27;;;;;;;;;;5001654;28;20054;-74
2023/12/08 06:47:02;;;;;;;42.45;23.13;;;;;;;;;;4986842;28;20065;-74
2023/12/08 06:49:28;;;;;;;40.20;23.40;;;;;;;;;;5000278;28;20050;-74
2023/12/08 06:51:54;;;;;;;42.53;23.42;;;;;;;;;;5004241;28;20046;-74
2023/12/08 06:54:20;;;;;;;39.47;22.25;;;;;;;;;;5013575;28;20054;-74
2023/12/08 06:56:46;;;;;;;40.13;22.25;;;;;;;;;;5003499;28;20562;-74
2023/12/08 06:59:12;;;;;;;41.25;22.80;;;;;;;;;;5010640;28;20056;-74
2023/12/08 07:01:39;;;;;;;40.50;22.73;;;;;;;;;;5008209;28;20101;-74
2023/12/08 07:04:05;;;;;;;42.97;23.05;;;;;;;;;;5004564;28;20080;-74
2023/12/08 07:06:31;;;;;;;34.90;20.90;;;;;;;;;;4982632;28;20045;-73
2023/12/08 07:08:57;;;;;;;41.78;23.65;;;;;;;;;;5002030;28;20046;-73
2023/12/08 07:11:23;;;;;;;43.90;23.35;;;;;;;;;;5005045;28;20553;-74
2023/12/08 07:13:50;;;;;;;41.38;24.02;;;;;;;;;;5006179;28;20041;-74
2023/12/08 07:16:16;;;;;;;43.75;24.20;;;;;;;;;;5011996;28;20096;-73
2023/12/08 07:18:42;;;;;;;46.78;24.45;;;;;;;;;;5002537;28;20053;-73
2023/12/08 07:21:08;;;;;;;43.92;22.45;;;;;;;;;;5006206;28;20060;-74
2023/12/08 07:23:35;;;;;;;36.63;22.67;;;;;;;;;;5001938;28;20042;-74
2023/12/08 07:26:01;;;;;;;40.60;23.15;;;;;;;;;;5011908;28;20137;-74
2023/12/08 07:28:27;;;;;;;41.22;24.40;;;;;;;;;;5013933;28;20046;-74
2023/12/08 07:30:53;;;;;;;44.10;23.27;;;;;;;;;;5009812;28;20117;-73
2023/12/08 07:33:20;;;;;;;42.90;24.83;;;;;;;;;;5000357;28;20042;-74
2023/12/08 07:35:46;;;;;;;41.05;23.17;;;;;;;;;;5010381;28;20064;-74
2023/12/08 07:38:12;;;;;;;39.63;21.65;;;;;;;;;;5012861;28;20052;-73
2023/12/08 07:40:38;;;;;;;40.03;23.60;;;;;;;;;;5013600;28;20475;-74
2023/12/08 07:43:04;;;;;;;40.22;22.65;;;;;;;;;;5005990;28;20496;-73
2023/12/08 07:45:31;;;;;;;43.03;22.33;;;;;;;;;;5011825;28;20045;-73
2023/12/08 07:47:57;;;;;;;41.13;23.02;;;;;;;;;;5011824;28;20057;-73
2023/12/08 07:50:24;;;;;;;40.20;23.08;;;;;;;;;;5009507;28;20506;-73
2023/12/08 07:52:51;;;;;;;42.83;24.98;;;;;;;;;;5012393;28;20054;-73
2023/12/08 07:55:17;;;;;;;38.47;22.80;;;;;;;;;;5011001;28;20092;-73
2023/12/08 07:57:43;;;;;;;40.95;23.55;;;;;;;;;;5012146;28;20411;-73
2023/12/08 08:00:10;;;;;;;37.33;23.35;;;;;;;;;;5012327;28;20053;-73
2023/12/08 08:02:36;;;;;;;41.38;23.67;;;;;;;;;;5011961;28;20123;-73
2023/12/08 08:05:03;;;;;;;40.13;23.75;;;;;;;;;;5011336;28;20065;-73
2023/12/08 08:07:29;;;;;;;39.58;23.10;;;;;;;;;;4999215;28;20049;-73
2023/12/08 08:09:55;;;;;;;40.70;23.40;;;;;;;;;;5004766;28;20053;-73
2023/12/08 08:12:22;;;;;;;41.25;24.13;;;;;;;;;;5011140;28;20435;-73
2023/12/08 08:14:48;;;;;;;43.47;25.13;;;;;;;;;;4999136;28;20046;-73
2023/12/08 08:17:14;;;;;;;43.00;23.52;;;;;;;;;;5011004;28;20503;-73
2023/12/08 08:19:41;;;;;;;40.83;25.02;;;;;;;;;;5010697;28;20065;-73
2023/12/08 08:22:07;;;;;;;39.00;23.05;;;;;;;;;;5011788;28;20046;-73
2023/12/08 08:24:33;;;;;;;41.15;23.65;;;;;;;;;;5014943;28;20451;-73
2023/12/08 08:27:00;;;;;;;39.42;22.73;;;;;;;;;;5015040;28;20088;-73
2023/12/08 08:29:26;;;;;;;40.63;23.00;;;;;;;;;;5014920;28;20055;-73
2023/12/08 08:31:52;;;;;;;38.85;22.83;;;;;;;;;;5014293;28;20041;-73
2023/12/08 08:34:19;;;;;;;39.58;23.30;;;;;;;;;;5012582;28;20062;-73
2023/12/08 08:36:45;;;;;;;38.55;22.67;;;;;;;;;;5014921;28;20046;-73
2023/12/08 08:39:11;;;;;;;41.70;23.48;;;;;;;;;;5012214;28;20476;-73
2023/12/08 08:41:37;;;;;;;40.72;24.23;;;;;;;;;;5005343;28;20439;-73
2023/12/08 08:44:03;;;;;;;41.55;23.52;;;;;;;;;;5003638;28;20129;-73
2023/12/08 08:46:30;;;;;;;44.10;22.45;;;;;;;;;;5013800;28;20046;-72
2023/12/08 08:48:56;;;;;;;40.53;24.20;;;;;;;;;;5014785;28;20053;-73
2023/12/08 08:51:23;;;;;;;39.38;23.30;;;;;;;;;;5015956;28;20103;-73
2023/12/08 08:53:50;;;;;;;39.28;23.63;;;;;;;;;;5015893;28;20329;-73
2023/12/08 08:56:16;;;;;;;41.78;23.83;;;;;;;;;;5015536;28;20431;-73
2023/12/08 08:58:42;;;;;;;38.10;23.65;;;;;;;;;;5005456;28;20042;-73
2023/12/08 09:01:08;;;;;;;36.53;22.90;;;;;;;;;;5014539;28;20038;-72
2023/12/08 09:03:34;;;;;;;39.13;24.83;;;;;;;;;;5015844;28;20052;-72
2023/12/08 09:06:00;;;;;;;38.80;23.92;;;;;;;;;;5009265;28;20066;-72
2023/12/08 09:08:26;;;;;;;42.20;24.48;;;;;;;;;;4996141;28;20177;-72
2023/12/08 09:10:53;;;;;;;41.65;24.05;;;;;;;;;;5010370;28;20041;-73
2023/12/08 09:13:21;;;;;;;35.97;21.25;;;;;;;;;;5007877;28;20506;-72
2023/12/08 09:15:47;;;;;;;38.80;23.17;;;;;;;;;;5002433;28;20093;-72
2023/12/08 09:18:13;;;;;;;41.13;24.13;;;;;;;;;;5008582;28;20046;-72
2023/12/08 09:20:39;;;;;;;37.97;22.83;;;;;;;;;;5002242;28;20057;-72
2023/12/08 09:23:05;;;;;;;44.05;23.27;;;;;;;;;;5014669;28;20173;-73
2023/12/08 09:25:31;;;;;;;42.35;24.42;;;;;;;;;;5012907;28;20046;-73
2023/12/08 09:27:58;;;;;;;48.00;24.80;;;;;;;;;;5010643;28;20116;-73
2023/12/08 09:30:24;;;;;;;41.45;24.40;;;;;;;;;;5003191;28;20054;-73
2023/12/08 09:32:50;;;;;;;43.13;24.30;;;;;;;;;;5003143;28;20064;-72
2023/12/08 09:35:18;;;;;;;39.15;23.17;;;;;;;;;;5009328;28;20081;-73
2023/12/08 09:37:44;;;;;;;36.65;23.17;;;;;;;;;;5014749;28;20041;-73
2023/12/08 09:40:15;;;;;;;40.92;23.27;;;;;;;;;;5009854;28;20084;-73
2023/12/08 09:42:50;;;;;;;37.80;23.17;;;;;;;;;;5005326;28;20056;-73
2023/12/08 09:45:16;;;;;;;41.90;23.77;;;;;;;;;;5004280;28;20449;-73
2023/12/08 09:47:44;;;;;;;37.58;22.80;;;;;;;;;;5001466;28;20042;-73
2023/12/08 09:50:10;;;;;;;35.78;22.10;;;;;;;;;;5004811;28;20363;-73
2023/12/08 09:52:36;;;;;;;37.80;23.70;;;;;;;;;;5007827;28;20100;-73
2023/12/08 09:55:03;;;;;;;36.88;23.38;;;;;;;;;;5013244;28;20053;-73
2023/12/08 09:57:31;;;;;;;36.13;22.42;;;;;;;;;;5014120;28;20066;-73
2023/12/08 09:59:59;;;;;;;36.47;22.83;;;;;;;;;;5011522;28;20424;-72
2023/12/08 10:02:25;;;;;;;40.13;24.60;;;;;;;;;;4997215;28;20054;-73
2023/12/08 10:04:52;;;;;;;37.33;23.20;;;;;;;;;;5014635;28;20108;-73
2023/12/08 10:07:19;;;;;;;37.90;22.23;;;;;;;;;;5013874;28;20042;-73
2023/12/08 10:09:45;;;;;;;38.85;24.17;;;;;;;;;;5009391;28;20042;-73
2023/12/08 10:12:11;;;;;;;38.50;23.63;;;;;;;;;;4995081;28;20050;-73
2023/12/08 10:14:53;;;;;;;36.20;22.42;;;;;;;;;;5005694;28;20056;-73
2023/12/08 10:17:19;;;;;;;38.28;23.90;;;;;;;;;;5007493;28;20046;-73
2023/12/08 10:19:45;;;;;;;36.30;23.88;;;;;;;;;;4998522;28;20061;-73
2023/12/08 10:22:11;;;;;;;35.92;23.08;;;;;;;;;;4998588;28;20046;-73
2023/12/08 10:24:37;;;;;;;33.28;20.95;;;;;;;;;;5009969;28;20049;-73
2023/12/08 10:27:03;;;;;;;40.08;23.83;;;;;;;;;;5010776;28;20454;-72
2023/12/08 10:29:30;;;;;;;36.50;23.20;;;;;;;;;;5001313;28;20053;-72
2023/12/08 10:31:57;;;;;;;37.95;23.05;;;;;;;;;;5013765;28;20092;-72
2023/12/08 10:34:24;;;;;;;34.17;22.83;;;;;;;;;;5014035;28;20053;-73
2023/12/08 10:36:50;;;;;;;38.40;23.85;;;;;;;;;;5013484;28;20065;-72
2023/12/08 10:39:17;;;;;;;36.17;23.08;;;;;;;;;;5003974;28;20061;-72
2023/12/08 10:41:43;;;;;;;34.75;22.63;;;;;;;;;;4999652;28;20057;-72
2023/12/08 10:44:09;;;;;;;36.63;23.30;;;;;;;;;;5012842;28;20431;-73
2023/12/08 10:46:35;;;;;;;36.95;23.55;;;;;;;;;;5013788;28;20053;-73
2023/12/08 10:49:02;;;;;;;40.53;24.00;;;;;;;;;;5004157;28;20173;-73
2023/12/08 10:51:29;;;;;;;35.08;22.42;;;;;;;;;;5011834;28;20042;-72
2023/12/08 10:53:57;;;;;;;39.08;23.73;;;;;;;;;;5010291;28;20498;-73
2023/12/08 10:56:25;;;;;;;37.85;23.27;;;;;;;;;;5002826;28;20498;-73
2023/12/08 10:58:55;;;;;;;39.50;24.27;;;;;;;;;;4999100;28;20057;-73
2023/12/08 11:01:22;;;;;;;37.75;22.95;;;;;;;;;;5013240;28;20054;-73
2023/12/08 11:03:51;;;;;;;35.53;23.77;;;;;;;;;;5004095;28;20077;-73
2023/12/08 11:06:22;;;;;;;40.78;24.25;;;;;;;;;;5011661;28;20055;-73
2023/12/08 11:08:54;;;;;;;42.47;24.38;;;;;;;;;;5001633;28;20097;-73
2023/12/08 11:11:20;;;;;;;40.28;24.02;;;;;;;;;;5004392;28;20050;-73
2023/12/08 11:13:48;;;;;;;38.85;23.67;;;;;;;;;;5011204;28;20522;-73
2023/12/08 11:16:33;;;;;;;39.20;23.40;;;;;;;;;;5012409;28;20149;-73
2023/12/08 11:18:59;;;;;;;40.47;24.42;;;;;;;;;;5012654;28;20046;-73
2023/12/08 11:21:25;;;;;;;43.85;24.85;;;;;;;;;;5011683;28;20117;-73
2023/12/08 11:23:51;;;;;;;43.30;25.08;;;;;;;;;;4995807;28;20050;-73
2023/12/08 11:26:17;;;;;;;43.80;24.88;;;;;;;;;;4999680;28;20138;-73
2023/12/08 11:28:47;;;;;;;43.88;25.50;;;;;;;;;;5006553;28;20060;-73
2023/12/08 11:31:13;;;;;;;45.40;24.17;;;;;;;;;;4998160;28;20049;-73
2023/12/08 11:33:42;;;;;;;50.30;26.08;;;;;;;;;;5008607;28;20676;-72
2023/12/08 11:36:08;;;;;;;55.88;26.48;;;;;;;;;;5012759;28;20081;-73
2023/12/08 11:38:35;;;;;;;57.15;27.13;;;;;;;;;;5001380;28;20461;-73
2023/12/08 11:41:01;;;;;;;64.28;28.42;;;;;;;;;;5006259;28;20414;-73
2023/12/08 11:43:27;;;;;;;64.70;28.92;;;;;;;;;;5009219;28;20050;-73
2023/12/08 11:45:53;;;;;;;55.55;25.13;;;;;;;;;;5012098;28;20070;-73
2023/12/08 11:48:20;;;;;;;74.32;28.80;;;;;;;;;;5012003;28;20046;-73
2023/12/08 11:50:46;;;;;;;73.15;27.77;;;;;;;;;;5012035;28;20046;-73
2023/12/08 11:53:13;;;;;;;74.72;31.30;;;;;;;;;;5010218;28;20038;-73
2023/12/08 11:55:39;;;;;;;68.53;29.88;;;;;;;;;;5012137;28;20041;-72
2023/12/08 11:58:06;;;;;;;76.43;29.98;;;;;;;;;;5006579;28;20042;-73
2023/12/08 12:00:39;;;;;;;72.93;30.35;;;;;;;;;;4991764;28;20047;-72
2023/12/08 12:03:07;;;;;;;79.53;29.08;;;;;;;;;;5006015;28;20050;-73
2023/12/08 12:05:35;;;;;;;67.05;29.10;;;;;;;;;;5005350;28;20049;-73
2023/12/08 12:08:02;;;;;;;83.95;29.65;;;;;;;;;;5005663;28;20046;-73
2023/12/08 12:10:33;;;;;;;90.82;30.52;;;;;;;;;;5004769;28;20091;-73
2023/12/08 12:13:07;;;;;;;82.15;28.58;;;;;;;;;;5006628;28;20070;-73
2023/12/08 12:15:34;;;;;;;59.97;26.35;;;;;;;;;;5010657;28;20046;-73
2023/12/08 12:18:01;;;;;;;74.57;28.05;;;;;;;;;;5008163;28;20196;-73
2023/12/08 12:20:30;;;;;;;72.68;28.65;;;;;;;;;;5011998;28;20046;-73
2023/12/08 12:22:57;;;;;;;90.93;30.45;;;;;;;;;;5011653;28;20050;-73
2023/12/08 12:25:23;;;;;;;78.03;31.33;;;;;;;;;;5009305;28;20061;-73
2023/12/08 12:27:49;;;;;;;89.28;33.15;;;;;;;;;;5008075;28;20050;-73
2023/12/08 12:30:16;;;;;;;85.78;31.90;;;;;;;;;;5000054;28;20050;-73
2023/12/08 12:32:44;;;;;;;96.05;31.90;;;;;;;;;;5011861;28;20045;-73
2023/12/08 12:35:11;;;;;;;94.88;30.70;;;;;;;;;;5008096;28;20077;-73
2023/12/08 12:37:37;;;;;;;90.55;32.50;;;;;;;;;;5004346;28;20045;-73
2023/12/08 12:40:07;;;;;;;111.85;33.15;;;;;;;;;;5003502;28;20046;-73
2023/12/08 12:42:54;;;;;;;79.80;31.27;;;;;;;;;;5008222;28;20054;-73
2023/12/08 12:45:30;;;;;;;104.82;33.35;;;;;;;;;;5009564;28;20134;-73
2023/12/08 12:48:03;;;;;;;81.28;33.53;;;;;;;;;;5010349;28;20506;-73
2023/12/08 12:50:29;;;;;;;96.93;33.35;;;;;;;;;;5010219;28;20054;-73
2023/12/08 12:53:04;;;;;;;73.65;31.88;;;;;;;;;;5009207;28;20050;-73
2023/12/08 12:55:31;;;;;;;108.07;34.15;;;;;;;;;;4999750;28;20337;-73
2023/12/08 12:57:57;;;;;;;93.85;32.70;;;;;;;;;;5005431;28;20057;-73
2023/12/08 13:00:39;;;;;;;90.38;33.25;;;;;;;;;;5006457;28;20046;-73
2023/12/08 13:03:05;;;;;;;;;;;;;;;;;;5006715;28;20161;-73
2023/12/08 13:05:31;;;;;;;102.50;32.17;;;;;;;;;;5010699;28;19922;-73
2023/12/08 13:07:58;;;;;;;105.53;33.70;;;;;;;;;;5011303;28;20122;-73
2023/12/08 13:10:24;;;;;;;112.32;34.55;;;;;;;;;;5002291;28;20038;-73
2023/12/08 13:12:50;;;;;;;105.72;34.55;;;;;;;;;;5011073;28;20054;-73
2023/12/08 13:15:17;;;;;;;94.10;32.35;;;;;;;;;;5015329;28;20137;-73
2023/12/08 13:17:43;;;;;;;119.90;36.20;;;;;;;;;;5015302;28;20509;-73
2023/12/08 13:20:10;;;;;;;100.22;34.75;;;;;;;;;;5013185;28;20061;-73
2023/12/08 13:22:36;;;;;;;114.32;36.00;;;;;;;;;;5013539;28;20065;-73
2023/12/08 13:25:02;;;;;;;94.22;35.65;;;;;;;;;;5003377;28;20087;-73
2023/12/08 13:27:28;;;;;;;102.93;34.47;;;;;;;;;;5014635;28;20423;-73
2023/12/08 13:29:54;;;;;;;105.25;35.80;;;;;;;;;;5013979;28;20427;-73
2023/12/08 13:32:20;;;;;;;131.70;36.50;;;;;;;;;;5007013;28;20045;-73
2023/12/08 13:34:46;;;;;;;125.20;37.55;;;;;;;;;;5007790;28;20038;-73
2023/12/08 13:37:12;;;;;;;130.55;35.60;;;;;;;;;;5010544;28;20049;-73
2023/12/08 13:39:38;;;;;;;103.93;35.97;;;;;;;;;;5014008;28;20061;-73
2023/12/08 13:42:05;;;;;;;174.00;38.00;;;;;;;;;;5011471;28;20050;-73
2023/12/08 13:44:31;;;;;;;138.68;37.38;;;;;;;;;;5012557;28;20115;-73
2023/12/08 13:46:57;;;;;;;154.55;37.95;;;;;;;;;;5014034;28;20050;-73
2023/12/08 13:49:23;;;;;;;152.20;37.42;;;;;;;;;;5004039;28;20046;-73
2023/12/08 13:51:49;;;;;;;198.00;39.42;;;;;;;;;;5009822;28;20186;-73
2023/12/08 13:54:15;;;;;;;145.68;36.15;;;;;;;;;;5014707;28;20046;-73
2023/12/08 13:56:41;;;;;;;159.27;37.95;;;;;;;;;;5012237;28;20053;-73
2023/12/08 13:59:08;;;;;;;161.07;37.30;;;;;;;;;;5008701;28;20433;-73
2023/12/08 14:01:34;;;;;;;175.50;36.35;;;;;;;;;;5004321;28;20054;-73
2023/12/08 14:04:00;;;;;;;145.32;36.83;;;;;;;;;;5014059;28;20107;-73
2023/12/08 14:06:26;;;;;;;201.45;37.88;;;;;;;;;;5013323;28;20042;-73
2023/12/08 14:08:52;;;;;;;99.75;35.88;;;;;;;;;;5014828;28;20050;-73
2023/12/08 14:11:21;;;;;;;130.55;35.10;;;;;;;;;;5006437;28;20523;-74
2023/12/08 14:13:47;;;;;;;158.10;38.35;;;;;;;;;;4995522;28;20145;-73